Time;durP1;ratioP1;P1;durP2;ratioP2;P2;SDS_P1;SDS_P2;PMS_P1;PMS_P2;Temp;Humidity;BMP_temperature;BMP_pressure;BME280_temperature;BME280_humidity;BME280_pressure;Samples;Min_cycle;Max_cycle;Signal;HPM_P1;HPM_P2
2022/07/05 00:02:23;;;;;;;4.80;2.60;;;;;;;23.41;51.66;100554.64;117171;1183;22924;-56
2022/07/05 00:04:50;;;;;;;4.20;2.10;;;;;;;23.37;51.70;100552.21;117148;1189;22319;-48
2022/07/05 00:07:18;;;;;;;2.60;2.00;;;;;;;23.34;51.92;100547.55;117009;1185;22714;-56
2022/07/05 00:09:49;;;;;;;5.30;2.30;;;;;;;23.30;51.81;100545.48;117046;1185;23044;-57
2022/07/05 00:12:17;;;;;;;3.80;2.10;;;;;;;23.25;51.79;100542.90;117052;1185;21865;-56
2022/07/05 00:14:47;;;;;;;3.90;2.00;;;;;;;23.24;51.70;100544.59;117172;1183;21862;-47
2022/07/05 00:17:14;;;;;;;3.90;2.60;;;;;;;23.24;51.80;100541.89;117238;1182;23541;-47
2022/07/05 00:19:41;;;;;;;2.70;2.00;;;;;;;23.24;51.94;100538.85;117066;1185;22645;-56
2022/07/05 00:22:08;;;;;;;3.80;2.30;;;;;;;23.24;51.82;100538.85;117148;1189;21859;-57
2022/07/05 00:24:35;;;;;;;3.60;1.90;;;;;;;23.25;51.83;100541.84;117142;1183;22932;-49
2022/07/05 00:27:02;;;;;;;3.10;2.10;;;;;;;23.26;51.83;100539.98;117075;1182;23470;-48
2022/07/05 00:29:29;;;;;;;4.80;2.50;;;;;;;23.27;51.95;100540.82;117148;1187;23017;-58
2022/07/05 00:31:57;;;;;;;4.50;2.40;;;;;;;23.27;52.01;100538.50;116927;1189;23861;-48
2022/07/05 00:34:24;;;;;;;4.80;2.00;;;;;;;23.28;51.94;100539.81;117190;1188;22622;-48
2022/07/05 00:36:51;;;;;;;2.80;2.10;;;;;;;23.30;52.11;100537.77;117032;1185;21866;-48
2022/07/05 00:39:18;;;;;;;6.10;2.80;;;;;;;23.28;52.05;100534.83;117021;1187;23557;-56
2022/07/05 00:41:44;;;;;;;2.90;2.00;;;;;;;23.26;51.86;100533.69;117077;1182;24172;-47
2022/07/05 00:44:14;;;;;;;3.10;2.20;;;;;;;23.26;52.04;100534.80;116916;1183;21878;-57
2022/07/05 00:46:42;;;;;;;4.30;2.10;;;;;;;23.25;52.07;100532.16;117007;1188;22951;-57
2022/07/05 00:49:09;;;;;;;4.30;2.30;;;;;;;23.22;52.07;100534.86;117095;1188;21865;-47
2022/07/05 00:51:37;;;;;;;5.50;2.30;;;;;;;23.19;52.01;100538.77;117123;1183;22931;-47
2022/07/05 00:54:25;;;;;;;3.30;2.10;;;;;;;23.14;52.11;100547.13;117164;1183;23644;-56
2022/07/05 00:56:52;;;;;;;3.60;1.90;;;;;;;23.16;52.29;100547.23;117180;1186;21917;-57
2022/07/05 00:59:25;;;;;;;4.70;2.20;;;;;;;23.16;52.27;100544.17;117111;1187;22930;-56
2022/07/05 01:01:52;;;;;;;3.20;2.00;;;;;;;23.14;52.26;100544.84;117116;1183;21974;-48
2022/07/05 01:04:18;;;;;;;3.80;2.10;;;;;;;23.12;52.23;100547.47;117074;1188;22937;-47
2022/07/05 01:06:47;;;;;;;3.40;2.00;;;;;;;23.04;52.34;100544.70;117136;1183;21846;-57
2022/07/05 01:09:15;;;;;;;4.40;2.10;;;;;;;23.01;52.45;100543.98;116966;1186;21843;-48
2022/07/05 01:11:50;;;;;;;3.00;2.00;;;;;;;23.00;52.37;100543.18;117154;1182;24176;-57
2022/07/05 01:14:18;;;;;;;4.00;1.80;;;;;;;22.98;52.27;100543.95;117110;1189;21879;-48
2022/07/05 01:16:45;;;;;;;6.70;2.40;;;;;;;22.97;52.44;100547.48;117120;1186;22937;-48
2022/07/05 01:19:13;;;;;;;4.50;2.30;;;;;;;22.95;52.41;100546.52;117070;1187;21866;-48
2022/07/05 01:21:42;;;;;;;5.50;2.20;;;;;;;22.91;52.46;100549.79;117234;1186;21964;-48
2022/07/05 01:24:10;;;;;;;4.90;2.60;;;;;;;22.82;52.78;100547.32;117328;1183;23548;-57
2022/07/05 01:26:38;;;;;;;6.30;2.10;;;;;;;22.80;52.86;100545.30;117142;1186;23737;-48
2022/07/05 01:29:05;;;;;;;6.60;2.60;;;;;;;22.78;52.91;100548.48;117132;1186;23697;-49
2022/07/05 01:31:32;;;;;;;6.00;2.30;;;;;;;22.77;52.86;100550.47;117231;1182;22643;-57
2022/07/05 01:33:59;;;;;;;3.50;2.10;;;;;;;22.76;52.92;100549.30;117358;1185;22902;-46
2022/07/05 01:36:26;;;;;;;4.00;2.70;;;;;;;22.75;53.07;100551.84;117132;1183;21854;-47
2022/07/05 01:38:53;;;;;;;6.00;2.10;;;;;;;22.76;52.91;100555.02;117205;1188;23572;-55
2022/07/05 01:41:20;;;;;;;4.60;2.10;;;;;;;22.75;53.08;100553.64;117309;1186;23556;-47
2022/07/05 01:43:47;;;;;;;5.40;2.10;;;;;;;22.72;53.06;100554.17;117320;1184;21859;-49
2022/07/05 01:46:15;;;;;;;6.10;2.20;;;;;;;22.70;53.16;100552.88;117277;1186;22803;-55
2022/07/05 01:48:42;;;;;;;5.50;2.00;;;;;;;22.69;53.12;100552.77;117355;1183;22100;-56
2022/07/05 01:51:21;;;;;;;3.20;1.80;;;;;;;22.67;53.05;100556.94;117330;1182;22927;-58
2022/07/05 01:53:50;;;;;;;3.80;2.30;;;;;;;22.67;52.99;100554.80;117331;1186;21861;-49
2022/07/05 01:56:17;;;;;;;4.80;2.30;;;;;;;22.68;53.08;100558.52;117120;1186;23448;-58
2022/07/05 01:58:44;;;;;;;5.30;2.20;;;;;;;22.69;53.18;100555.41;117092;1183;23541;-49
2022/07/05 02:01:10;;;;;;;5.40;1.90;;;;;;;22.69;53.03;100553.84;117342;1186;24708;-49
2022/07/05 02:03:39;;;;;;;5.10;2.20;;;;;;;22.69;53.14;100557.04;117271;1183;23564;-49
2022/07/05 02:06:22;;;;;;;4.80;2.20;;;;;;;22.70;53.01;100555.21;117161;1185;21851;-49
2022/07/05 02:08:49;;;;;;;4.30;2.20;;;;;;;22.70;53.09;100555.91;117263;1183;22913;-57
2022/07/05 02:11:16;;;;;;;6.70;1.80;;;;;;;22.70;53.14;100552.88;117278;1182;23576;-58
2022/07/05 02:13:43;;;;;;;3.40;1.90;;;;;;;22.69;53.12;100551.66;117295;1182;21938;-49
2022/07/05 02:16:10;;;;;;;5.50;1.90;;;;;;;22.69;53.12;100548.98;117105;1185;22930;-50
2022/07/05 02:18:37;;;;;;;4.60;2.10;;;;;;;22.69;53.18;100551.32;117214;1186;21855;-49
2022/07/05 02:21:04;;;;;;;5.40;2.60;;;;;;;22.68;53.13;100548.16;117131;1186;21855;-49
2022/07/05 02:23:31;;;;;;;3.80;2.20;;;;;;;22.69;53.15;100542.35;117091;1186;23658;-49
2022/07/05 02:25:58;;;;;;;3.20;2.10;;;;;;;22.70;53.22;100539.66;117034;1186;23554;-49
2022/07/05 02:28:25;;;;;;;3.60;1.90;;;;;;;22.73;53.09;100539.41;117166;1189;21873;-49
2022/07/05 02:30:52;;;;;;;5.10;2.00;;;;;;;22.80;53.06;100540.98;117194;1180;23037;-49
2022/07/05 02:33:20;;;;;;;4.80;2.10;;;;;;;22.81;53.28;100540.92;117168;1183;22926;-49
2022/07/05 02:35:47;;;;;;;10.20;2.70;;;;;;;22.82;53.08;100541.42;117043;1186;24150;-58
2022/07/05 02:38:14;;;;;;;5.80;2.40;;;;;;;22.78;53.21;100540.95;117044;1185;21882;-49
2022/07/05 02:40:40;;;;;;;3.20;2.20;;;;;;;22.77;53.39;100538.83;116992;1188;23555;-49
2022/07/05 02:43:07;;;;;;;7.50;2.20;;;;;;;22.79;53.27;100537.48;117100;1185;21913;-57
2022/07/05 02:45:34;;;;;;;7.50;2.30;;;;;;;22.83;53.35;100540.81;117152;1186;22630;-50
2022/07/05 02:48:02;;;;;;;4.40;2.10;;;;;;;22.85;53.38;100543.02;116990;1186;21939;-49
2022/07/05 02:50:29;;;;;;;3.20;2.20;;;;;;;22.85;53.30;100548.73;117223;1186;21855;-58
2022/07/05 02:52:56;;;;;;;6.40;2.60;;;;;;;22.84;53.23;100552.35;117062;1186;21858;-58
2022/07/05 02:55:23;;;;;;;8.70;4.00;;;;;;;22.83;53.24;100555.27;117228;1183;22818;-51
2022/07/05 02:57:50;;;;;;;6.10;3.70;;;;;;;22.82;53.27;100553.03;117209;1188;22900;-50
2022/07/05 03:00:17;;;;;;;6.30;3.80;;;;;;;22.84;53.34;100555.24;117044;1185;22094;-57
2022/07/05 03:02:44;;;;;;;8.50;4.00;;;;;;;22.84;53.32;100556.27;117125;1185;21873;-57
2022/07/05 03:05:11;;;;;;;7.20;3.40;;;;;;;22.85;53.33;100554.44;117163;1181;21850;-47
2022/07/05 03:07:38;;;;;;;6.20;3.00;;;;;;;22.86;53.32;100555.48;117135;1185;22070;-56
2022/07/05 03:10:06;;;;;;;10.10;3.10;;;;;;;22.88;53.20;100556.05;117067;1184;21836;-49
2022/07/05 03:12:34;;;;;;;5.50;3.50;;;;;;;22.94;53.26;100554.27;117042;1186;22880;-48
2022/07/05 03:15:01;;;;;;;9.20;3.30;;;;;;;23.00;53.43;100553.89;117002;1188;21861;-57
2022/07/05 03:17:28;;;;;;;7.80;3.30;;;;;;;23.06;53.46;100555.17;117008;1188;21928;-56
2022/07/05 03:19:55;;;;;;;6.40;3.00;;;;;;;23.10;53.55;100550.05;116982;1185;22426;-48
2022/07/05 03:22:22;;;;;;;4.50;3.00;;;;;;;23.14;53.50;100549.62;117053;1186;23725;-56
2022/07/05 03:24:49;;;;;;;4.60;2.90;;;;;;;23.20;53.32;100547.30;116925;1186;21934;-56
2022/07/05 03:27:16;;;;;;;6.80;2.40;;;;;;;23.21;53.66;100553.73;117303;1187;22629;-58
2022/07/05 03:29:44;;;;;;;3.80;2.10;;;;;;;23.17;53.80;100558.08;117120;1186;22085;-55
2022/07/05 03:32:11;;;;;;;9.80;2.60;;;;;;;23.20;53.86;100558.77;117080;1185;21853;-56
2022/07/05 03:34:38;;;;;;;5.70;2.50;;;;;;;23.25;54.12;100551.30;117001;1187;21900;-56
2022/07/05 03:37:06;;;;;;;6.70;2.80;;;;;;;23.31;54.05;100552.90;117039;1182;22763;-56
2022/07/05 03:39:33;;;;;;;8.80;2.20;;;;;;;23.40;54.01;100550.57;117042;1182;22949;-55
2022/07/05 03:42:00;;;;;;;5.30;2.40;;;;;;;23.47;54.05;100552.11;116885;1187;22932;-56
2022/07/05 03:44:27;;;;;;;5.80;2.80;;;;;;;23.54;54.12;100549.54;116986;1184;22163;-56
2022/07/05 03:46:54;;;;;;;5.20;2.20;;;;;;;23.61;54.24;100546.91;117138;1183;23634;-47
2022/07/05 03:49:21;;;;;;;7.10;2.10;;;;;;;23.69;54.16;100542.60;117189;1186;21860;-48
2022/07/05 03:51:48;;;;;;;13.30;2.90;;;;;;;23.79;54.16;100540.91;117014;1188;22925;-56
2022/07/05 03:54:16;;;;;;;8.10;2.40;;;;;;;23.90;54.03;100542.89;116863;1186;21888;-47
2022/07/05 03:56:43;;;;;;;3.60;2.30;;;;;;;24.03;53.96;100543.70;116986;1188;22998;-55
2022/07/05 03:59:10;;;;;;;6.30;2.40;;;;;;;24.17;53.94;100545.83;117282;1183;23015;-55
2022/07/05 04:01:37;;;;;;;9.50;2.90;;;;;;;24.30;53.87;100545.33;117028;1182;22053;-47
2022/07/05 04:04:04;;;;;;;10.10;2.90;;;;;;;24.44;53.86;100545.77;117108;1182;22946;-47
2022/07/05 04:06:31;;;;;;;7.20;2.30;;;;;;;24.57;53.80;100546.70;117076;1187;21852;-56
2022/07/05 04:08:58;;;;;;;8.70;2.60;;;;;;;24.69;53.97;100552.72;117023;1182;22618;-47
2022/07/05 04:11:25;;;;;;;6.70;1.80;;;;;;;24.81;53.78;100552.25;117034;1188;21972;-48
2022/07/05 04:13:52;;;;;;;6.30;1.90;;;;;;;24.93;53.30;100551.11;117027;1182;22108;-56
2022/07/05 04:16:20;;;;;;;6.20;2.30;;;;;;;25.03;53.10;100554.14;117037;1183;22622;-55
2022/07/05 04:18:47;;;;;;;7.60;2.30;;;;;;;25.15;53.00;100553.47;116783;1186;22928;-49
2022/07/05 04:21:14;;;;;;;9.10;2.60;;;;;;;25.29;52.70;100550.73;117084;1186;21854;-56
2022/07/05 04:23:41;;;;;;;7.60;1.90;;;;;;;25.46;52.31;100552.23;117207;1186;22837;-48
2022/07/05 04:26:08;;;;;;;11.80;2.90;;;;;;;25.65;51.66;100553.72;117154;1184;21851;-56
2022/07/05 04:28:35;;;;;;;7.50;2.30;;;;;;;25.84;51.62;100549.84;117180;1184;22526;-48
2022/07/05 04:31:02;;;;;;;6.60;2.30;;;;;;;26.05;51.36;100550.08;117319;1186;22792;-56
2022/07/05 04:33:30;;;;;;;7.50;2.40;;;;;;;26.25;50.83;100554.18;117016;1187;22457;-48
2022/07/05 04:35:57;;;;;;;9.00;2.10;;;;;;;26.43;50.37;100556.27;117131;1185;22998;-56
2022/07/05 04:38:24;;;;;;;11.10;2.40;;;;;;;26.56;49.97;100552.88;117264;1185;22619;-57
2022/07/05 04:40:51;;;;;;;6.60;2.00;;;;;;;26.70;49.42;100552.34;117159;1185;22942;-57
2022/07/05 04:43:18;;;;;;;7.50;2.50;;;;;;;26.86;49.57;100549.91;117277;1181;22959;-56
2022/07/05 04:45:45;;;;;;;10.40;3.60;;;;;;;27.05;49.21;100547.02;117219;1186;22267;-57
2022/07/05 04:48:12;;;;;;;3.10;2.10;;;;;;;27.26;48.99;100544.64;117062;1186;24161;-56
2022/07/05 04:50:39;;;;;;;5.80;2.00;;;;;;;27.46;48.66;100544.63;117179;1183;22862;-57
2022/07/05 04:53:05;;;;;;;3.90;2.40;;;;;;;27.61;47.46;100545.45;117140;1182;22196;-49
2022/07/05 04:55:33;;;;;;;5.10;2.10;;;;;;;27.73;47.18;100545.75;117110;1189;23640;-56
2022/07/05 04:58:00;;;;;;;3.50;2.20;;;;;;;27.83;47.45;100545.98;117007;1185;22875;-56
2022/07/05 05:00:26;;;;;;;6.70;2.70;;;;;;;27.98;49.49;100541.92;117128;1185;21857;-48
2022/07/05 05:02:54;;;;;;;4.40;2.20;;;;;;;28.28;48.24;100542.27;117103;1183;22119;-49
2022/07/05 05:05:20;;;;;;;8.70;2.30;;;;;;;28.58;46.88;100533.23;117101;1183;21881;-56
2022/07/05 05:07:47;;;;;;;7.80;2.30;;;;;;;28.82;46.37;100532.83;116981;1185;22619;-56
2022/07/05 05:10:14;;;;;;;5.10;2.00;;;;;;;29.06;45.63;100530.95;117060;1182;21894;-56
2022/07/05 05:12:41;;;;;;;7.90;2.10;;;;;;;29.26;45.30;100531.51;117144;1185;21855;-49
2022/07/05 05:15:09;;;;;;;6.20;2.00;;;;;;;29.48;45.17;100533.78;117278;1186;23560;-50
2022/07/05 05:17:41;;;;;;;8.50;2.30;;;;;;;29.72;44.72;100530.52;117162;1186;22918;-48
2022/07/05 05:20:13;;;;;;;7.50;2.20;;;;;;;30.01;43.88;100528.14;117312;1185;22918;-49
2022/07/05 05:22:40;;;;;;;9.00;3.20;;;;;;;30.29;44.00;100533.31;117313;1182;23554;-50
2022/07/05 05:25:08;;;;;;;8.20;2.30;;;;;;;30.50;43.08;100535.48;117274;1185;21838;-57
2022/07/05 05:27:35;;;;;;;7.60;2.30;;;;;;;30.67;41.86;100537.40;117328;1185;21937;-56
2022/07/05 05:30:02;;;;;;;8.60;2.20;;;;;;;30.84;41.35;100542.66;117299;1186;23544;-49
2022/07/05 05:32:29;;;;;;;3.20;1.80;;;;;;;31.03;41.31;100544.50;117055;1186;23547;-49
2022/07/05 05:34:56;;;;;;;6.20;2.20;;;;;;;31.25;42.07;100541.50;117080;1184;22929;-56
2022/07/05 05:37:22;;;;;;;6.70;2.00;;;;;;;31.43;41.37;100540.80;117228;1182;24233;-57
2022/07/05 05:39:50;;;;;;;7.10;2.30;;;;;;;31.63;40.60;100537.58;117088;1186;23589;-56
2022/07/05 05:42:17;;;;;;;5.10;1.80;;;;;;;31.90;40.10;100536.73;117242;1183;23783;-50
2022/07/05 05:44:43;;;;;;;7.50;2.20;;;;;;;32.09;40.25;100534.00;117202;1186;22651;-57
2022/07/05 05:47:10;;;;;;;4.00;1.80;;;;;;;32.25;40.45;100534.39;117234;1182;22975;-49
2022/07/05 05:49:42;;;;;;;5.60;2.10;;;;;;;32.42;39.13;100531.15;117302;1183;21898;-50
2022/07/05 05:52:10;;;;;;;4.00;1.60;;;;;;;32.60;38.86;100531.86;117263;1186;22972;-49
2022/07/05 05:54:37;;;;;;;6.00;1.90;;;;;;;32.78;37.93;100528.73;117316;1183;21995;-57
2022/07/05 05:57:04;;;;;;;8.60;2.00;;;;;;;32.89;36.57;100530.89;117104;1183;22711;-57
2022/07/05 05:59:31;;;;;;;5.20;1.90;;;;;;;32.92;35.17;100534.02;117280;1185;23566;-49
2022/07/05 06:01:58;;;;;;;9.10;1.90;;;;;;;33.07;36.34;100533.05;117328;1182;22626;-50
2022/07/05 06:04:25;;;;;;;8.40;1.80;;;;;;;33.20;35.05;100534.33;117108;1185;23374;-57
2022/07/05 06:06:52;;;;;;;5.30;1.90;;;;;;;33.33;36.04;100536.79;117051;1186;22276;-57
2022/07/05 06:09:19;;;;;;;5.70;2.40;;;;;;;33.45;36.35;100534.67;117184;1186;22802;-57
2022/07/05 06:11:46;;;;;;;9.50;2.20;;;;;;;33.60;35.67;100531.61;117058;1183;22948;-50
2022/07/05 06:14:13;;;;;;;6.10;2.10;;;;;;;33.78;34.85;100531.68;117242;1182;22844;-57
2022/07/05 06:16:40;;;;;;;4.00;1.80;;;;;;;33.91;34.87;100530.59;117064;1183;23649;-57
2022/07/05 06:19:07;;;;;;;5.90;2.40;;;;;;;34.11;34.47;100530.80;117291;1185;21850;-57
2022/07/05 06:21:34;;;;;;;7.00;2.50;;;;;;;34.25;34.50;100530.96;117209;1183;24219;-51
2022/07/05 06:24:01;;;;;;;9.20;2.10;;;;;;;34.35;34.54;100525.51;117263;1186;24016;-50
2022/07/05 06:26:28;;;;;;;4.90;2.30;;;;;;;34.48;34.02;100526.23;117039;1185;22094;-50
2022/07/05 06:28:55;;;;;;;4.10;2.10;;;;;;;34.64;34.16;100530.28;117327;1183;24222;-50
2022/07/05 06:31:22;;;;;;;3.50;2.20;;;;;;;34.76;32.78;100526.44;117322;1185;22617;-50
2022/07/05 06:33:49;;;;;;;11.40;2.30;;;;;;;34.84;33.30;100522.61;117288;1182;22967;-57
2022/07/05 06:36:16;;;;;;;7.10;2.40;;;;;;;34.96;32.94;100525.40;117135;1185;21898;-50
2022/07/05 06:38:43;;;;;;;8.30;2.20;;;;;;;35.02;32.36;100520.96;117262;1182;24242;-57
2022/07/05 06:41:10;;;;;;;4.30;2.20;;;;;;;35.04;32.88;100520.95;117308;1183;22926;-52
2022/07/05 06:43:37;;;;;;;3.90;2.00;;;;;;;35.05;32.73;100517.83;117260;1182;22793;-57
2022/07/05 06:46:04;;;;;;;4.20;2.20;;;;;;;35.23;33.19;100516.15;117218;1185;23576;-57
2022/07/05 06:48:31;;;;;;;6.20;2.20;;;;;;;35.47;31.34;100513.96;117262;1182;23078;-58
2022/07/05 06:50:58;;;;;;;3.80;2.20;;;;;;;35.55;30.37;100513.78;117276;1186;21881;-53
2022/07/05 06:53:25;;;;;;;10.10;5.10;;;;;;;35.59;31.68;100513.13;117058;1187;22008;-58
2022/07/05 06:55:52;;;;;;;8.60;5.60;;;;;;;35.66;31.87;100508.28;117008;1185;21885;-58
2022/07/05 06:58:22;;;;;;;16.00;9.80;;;;;;;35.86;31.40;100507.98;117062;1182;21884;-50
2022/07/05 07:00:49;;;;;;;24.20;15.40;;;;;;;36.12;31.38;100504.08;117088;1186;21876;-58
2022/07/05 07:03:36;;;;;;;45.50;27.50;;;;;;;36.33;30.63;100504.84;117048;1186;22991;-58
2022/07/05 07:06:23;;;;;;;40.00;24.60;;;;;;;36.46;30.48;100505.57;117145;1185;22928;-50
2022/07/05 07:11:35;;;;;;;5.10;3.50;;;;;;;36.70;30.07;100502.92;117025;1183;21867;-59
2022/07/05 07:14:02;;;;;;;4.50;2.80;;;;;;;36.72;29.00;100497.95;117138;1183;22911;-50
2022/07/05 07:16:28;;;;;;;2.90;2.40;;;;;;;36.70;28.76;100498.05;117226;1182;22942;-50
2022/07/05 07:18:56;;;;;;;4.10;2.20;;;;;;;36.70;29.52;100498.05;116924;1186;22188;-59
2022/07/05 07:21:40;;;;;;;6.00;2.40;;;;;;;36.77;29.80;100491.16;117071;1186;23484;-50
2022/07/05 07:24:08;;;;;;;6.90;2.80;;;;;;;37.05;29.37;100493.59;117054;1186;22881;-58
2022/07/05 07:29:21;;;;;;;4.60;2.60;;;;;;;37.33;26.41;100492.84;116974;1187;21857;-50
2022/07/05 07:31:48;;;;;;;6.60;3.00;;;;;;;37.32;27.72;100491.61;117053;1189;21863;-58
2022/07/05 07:34:15;;;;;;;7.10;3.20;;;;;;;37.35;27.47;100491.17;117068;1188;22796;-50
2022/07/05 07:36:42;;;;;;;4.90;2.40;;;;;;;37.40;28.23;100489.29;117008;1182;22865;-50
2022/07/05 07:39:09;;;;;;;4.00;2.80;;;;;;;37.62;28.55;100488.20;117044;1182;22721;-58
2022/07/05 07:41:36;;;;;;;7.30;2.70;;;;;;;37.91;28.19;100491.89;117058;1185;22631;-50
2022/07/05 07:44:03;;;;;;;5.30;2.30;;;;;;;38.16;27.71;100494.02;117074;1188;22970;-51
2022/07/05 07:46:30;;;;;;;3.90;2.30;;;;;;;38.25;26.97;100496.12;117035;1187;22813;-58
2022/07/05 07:48:57;;;;;;;7.40;2.90;;;;;;;38.27;26.62;100494.40;116976;1183;22277;-51
2022/07/05 07:51:24;;;;;;;5.50;3.30;;;;;;;38.35;27.06;100494.45;117041;1186;21866;-53
2022/07/05 07:53:51;;;;;;;4.40;2.30;;;;;;;38.44;26.53;100498.71;117038;1184;22921;-57
2022/07/05 07:56:18;;;;;;;6.80;3.70;;;;;;;38.48;26.83;100501.91;117057;1188;23555;-51
2022/07/05 07:58:46;;;;;;;9.20;4.10;;;;;;;38.63;26.30;100503.20;117078;1183;22951;-59
2022/07/05 08:01:14;;;;;;;6.40;3.60;;;;;;;38.76;26.69;100498.88;117086;1186;21915;-51
2022/07/05 08:03:41;;;;;;;7.90;3.30;;;;;;;38.96;26.45;100498.33;117132;1183;22180;-50
2022/07/05 08:06:10;;;;;;;13.40;3.30;;;;;;;39.15;26.61;100497.63;117283;1185;24688;-51
2022/07/05 08:08:38;;;;;;;8.60;2.60;;;;;;;39.33;25.10;100496.74;117286;1182;23472;-51
2022/07/05 08:11:05;;;;;;;6.80;2.70;;;;;;;39.34;25.12;100494.41;117023;1182;22620;-51
2022/07/05 08:13:32;;;;;;;7.00;2.90;;;;;;;39.38;25.24;100495.23;116991;1187;21857;-51
2022/07/05 08:15:59;;;;;;;15.40;6.40;;;;;;;39.39;24.97;100498.52;117022;1182;22645;-51
2022/07/05 08:24:03;;;;;;;5.90;2.60;;;;;;;39.48;24.84;100502.98;117238;1186;21985;-58
2022/07/05 08:26:32;;;;;;;6.30;2.50;;;;;;;39.73;24.89;100497.11;117313;1183;21961;-55
2022/07/05 08:29:01;;;;;;;9.50;2.80;;;;;;;39.98;24.66;100500.23;117307;1186;21927;-51
2022/07/05 08:31:41;;;;;;;8.10;2.60;;;;;;;40.03;24.64;100495.63;117288;1184;23545;-59
2022/07/05 08:34:08;;;;;;;4.80;2.40;;;;;;;40.00;23.64;100497.39;117286;1183;21864;-51
2022/07/05 08:36:36;;;;;;;6.30;2.90;;;;;;;39.90;23.49;100496.00;117322;1184;22239;-50
2022/07/05 08:39:03;;;;;;;5.90;2.80;;;;;;;39.81;23.44;100497.73;117136;1188;23045;-51
2022/07/05 08:41:32;;;;;;;5.60;2.80;;;;;;;39.80;24.03;100497.76;117049;1183;22866;-59
2022/07/05 08:43:59;;;;;;;4.00;2.90;;;;;;;39.83;23.04;100502.35;117316;1184;22645;-59
2022/07/05 08:46:26;;;;;;;4.20;2.70;;;;;;;39.87;23.76;100498.70;117322;1182;22322;-51
2022/07/05 08:48:53;;;;;;;3.60;2.50;;;;;;;39.95;23.60;100496.98;117070;1182;24169;-56
2022/07/05 08:51:21;;;;;;;5.40;2.70;;;;;;;40.01;23.50;100491.85;117128;1182;23579;-59
2022/07/05 08:53:49;;;;;;;5.00;3.00;;;;;;;40.25;23.57;100493.77;117151;1182;21827;-59
2022/07/05 08:56:16;;;;;;;3.90;2.70;;;;;;;40.34;22.10;100489.74;117162;1184;22834;-54
2022/07/05 08:59:00;;;;;;;5.90;2.70;;;;;;;40.34;22.76;100488.69;117311;1182;23451;-51
2022/07/05 09:01:27;;;;;;;4.10;2.50;;;;;;;40.39;22.83;100489.11;117036;1183;22837;-51
2022/07/05 09:03:54;;;;;;;6.00;3.00;;;;;;;40.50;22.91;100485.48;117405;1186;21891;-52
2022/07/05 09:06:22;;;;;;;6.80;2.90;;;;;;;40.61;22.00;100485.33;117212;1188;23576;-52
2022/07/05 09:08:54;;;;;;;6.30;2.60;;;;;;;40.55;22.43;100483.40;117403;1183;22956;-59
2022/07/05 09:11:25;;;;;;;4.70;3.20;;;;;;;40.32;22.47;100485.88;117091;1187;22946;-59
2022/07/05 09:13:52;;;;;;;5.00;3.00;;;;;;;40.00;22.02;100491.64;117386;1186;21854;-59
2022/07/05 09:16:39;;;;;;;5.60;2.90;;;;;;;39.67;22.52;100491.87;117294;1182;22969;-59
2022/07/05 09:19:07;;;;;;;3.50;2.30;;;;;;;39.74;22.83;100480.50;117116;1185;22264;-51
2022/07/05 09:21:34;;;;;;;7.10;3.20;;;;;;;39.95;22.80;100475.95;117106;1186;23576;-51
2022/07/05 09:24:01;;;;;;;4.20;2.70;;;;;;;40.43;23.05;100479.50;117083;1183;21867;-59
2022/07/05 09:26:44;;;;;;;4.90;3.10;;;;;;;40.94;21.72;100480.21;117052;1186;21855;-51
2022/07/05 09:29:19;;;;;;;6.60;3.10;;;;;;;41.24;21.77;100477.65;117268;1182;21924;-59
2022/07/05 09:32:06;;;;;;;5.40;3.10;;;;;;;41.47;21.05;100478.20;117259;1182;21854;-58
2022/07/05 09:34:34;;;;;;;5.40;3.10;;;;;;;41.70;20.81;100474.80;117100;1184;22914;-58
2022/07/05 09:37:02;;;;;;;8.00;2.90;;;;;;;41.75;20.56;100480.29;117407;1182;22016;-59
2022/07/05 09:39:30;;;;;;;4.10;2.80;;;;;;;41.84;20.87;100478.30;117281;1184;23489;-60
2022/07/05 09:42:13;;;;;;;10.90;2.90;;;;;;;42.04;20.95;100476.14;117092;1183;22954;-52
2022/07/05 09:44:48;;;;;;;5.90;3.00;;;;;;;42.00;20.77;100472.42;117337;1186;21856;-59
2022/07/05 09:47:16;;;;;;;11.60;3.30;;;;;;;41.65;20.76;100475.41;117396;1183;22030;-59
2022/07/05 09:49:46;;;;;;;7.00;3.30;;;;;;;41.39;20.92;100474.07;117346;1182;23645;-59
2022/07/05 09:52:37;;;;;;;4.70;3.10;;;;;;;41.07;21.23;100475.65;117254;1184;23807;-59
2022/07/05 09:55:12;;;;;;;7.00;3.20;;;;;;;40.68;20.71;100477.94;117311;1184;21872;-51
2022/07/05 09:57:40;;;;;;;9.00;2.80;;;;;;;40.21;20.88;100476.80;117326;1185;23652;-59
2022/07/05 10:00:12;;;;;;;5.20;3.00;;;;;;;39.82;20.39;100479.66;117318;1182;23541;-51
2022/07/05 10:02:47;;;;;;;4.90;3.20;;;;;;;39.32;20.78;100481.42;117112;1186;21876;-54
2022/07/05 10:05:24;;;;;;;7.00;3.10;;;;;;;38.81;20.87;100480.89;117086;1187;23015;-51
2022/07/05 10:07:52;;;;;;;5.80;3.10;;;;;;;38.50;21.48;100479.72;117178;1182;23557;-59
2022/07/05 10:10:22;;;;;;;5.30;3.10;;;;;;;38.31;21.66;100474.48;117283;1185;21999;-51
2022/07/05 10:12:53;;;;;;;6.50;3.30;;;;;;;38.16;22.05;100473.08;117478;1185;21853;-62
2022/07/05 10:15:21;;;;;;;8.20;2.90;;;;;;;38.21;22.42;100469.67;117351;1184;22621;-61
2022/07/05 10:18:04;;;;;;;7.50;2.70;;;;;;;38.26;22.19;100466.13;117370;1182;21864;-49
2022/07/05 10:20:31;;;;;;;6.90;2.90;;;;;;;38.15;22.22;100462.40;117021;1182;22067;-58
2022/07/05 10:22:58;;;;;;;4.90;2.70;;;;;;;38.07;22.36;100459.80;117319;1182;23644;-59
2022/07/05 10:25:31;;;;;;;6.70;3.00;;;;;;;37.93;22.40;100456.98;117350;1185;23449;-50
2022/07/05 10:27:58;;;;;;;6.20;2.90;;;;;;;37.79;22.56;100459.27;117287;1186;21855;-58
2022/07/05 10:30:25;;;;;;;10.30;2.80;;;;;;;37.74;23.04;100463.25;117315;1182;22921;-59
2022/07/05 10:32:53;;;;;;;9.10;3.60;;;;;;;37.63;23.18;100466.21;117287;1186;22101;-59
2022/07/05 10:35:21;;;;;;;7.60;3.10;;;;;;;37.46;23.07;100461.09;117056;1183;21874;-59
2022/07/05 10:37:50;;;;;;;6.00;2.80;;;;;;;37.24;23.45;100461.23;117320;1185;22620;-61
2022/07/05 10:40:20;;;;;;;7.70;3.40;;;;;;;37.06;23.31;100465.05;117194;1186;22561;-50
2022/07/05 10:42:49;;;;;;;7.90;3.50;;;;;;;36.89;23.49;100464.93;117258;1183;22921;-49
2022/07/05 10:45:49;;;;;;;8.10;3.30;;;;;;;36.70;23.52;100462.59;117280;1182;21863;-58
2022/07/05 10:48:26;;;;;;;6.60;2.90;;;;;;;36.49;23.75;100464.30;117182;1185;23457;-59
2022/07/05 10:51:13;;;;;;;4.30;2.60;;;;;;;36.34;23.94;100466.85;117301;1186;21865;-49
2022/07/05 10:53:41;;;;;;;6.70;3.00;;;;;;;36.30;24.19;100464.84;117347;1185;23452;-59
2022/07/05 10:56:08;;;;;;;11.90;7.30;;;;;;;36.31;24.22;100464.52;117211;1181;21915;-49
2022/07/05 10:58:38;;;;;;;10.40;6.30;;;;;;;36.27;24.49;100460.92;117327;1185;21896;-49
2022/07/05 11:01:11;;;;;;;11.20;3.70;;;;;;;36.24;24.56;100458.41;117244;1180;22942;-59
2022/07/05 11:03:40;;;;;;;9.10;4.50;;;;;;;36.23;24.73;100459.16;117312;1185;22184;-49
2022/07/05 11:06:10;;;;;;;4.80;3.30;;;;;;;36.31;24.88;100457.60;117355;1183;23435;-58
2022/07/05 11:08:59;;;;;;;9.90;3.90;;;;;;;36.49;24.94;100451.57;117353;1183;22904;-58
2022/07/05 11:11:30;;;;;;;8.60;4.10;;;;;;;36.86;24.62;100449.80;117260;1185;22564;-58
2022/07/05 11:14:04;;;;;;;6.20;2.50;;;;;;;37.30;24.51;100447.30;117249;1182;22916;-59
2022/07/05 11:16:36;;;;;;;13.00;3.30;;;;;;;37.80;24.04;100444.34;117419;1185;22924;-49
2022/07/05 11:19:16;;;;;;;4.80;2.90;;;;;;;38.31;23.63;100450.05;117291;1185;21860;-58
2022/07/05 11:22:00;;;;;;;5.50;3.20;;;;;;;38.72;23.36;100449.60;117741;1186;21899;-50
2022/07/05 11:24:29;;;;;;;4.30;2.50;;;;;;;39.01;23.21;100446.09;117081;1187;22029;-50
2022/07/05 11:27:00;;;;;;;8.30;2.70;;;;;;;39.31;23.24;100444.21;117044;1187;21870;-50
2022/07/05 11:29:43;;;;;;;4.20;2.60;;;;;;;39.47;22.72;100442.41;117109;1183;21866;-55
2022/07/05 11:32:22;;;;;;;4.80;3.20;;;;;;;39.47;22.61;100437.52;117036;1186;21908;-51
2022/07/05 11:34:53;;;;;;;5.00;2.60;;;;;;;39.26;22.39;100444.70;117098;1183;22862;-51
2022/07/05 11:37:24;;;;;;;5.60;2.90;;;;;;;39.02;22.68;100444.23;117097;1186;22000;-50